Contacto @
curve curve curve curve

METEOROLOGÍA AERONÁUTICA

INFORMACIÓN METEOROLÓGICA

En este apartado aparece la información meteorológica aeronáutica que es utilizada en las prácticas de los alumnos de la Escuela de Pilotos de nuestro centro durante su formación, por lo que puede no ser actual y debe ser usada por su propia cuenta y riesgo. AERBRAVA no se hace responsable de su uso.

TIEMPO ACTUAL

Satélite meteorológico sat24.com

Servei Meteorològic de Catalunya
LEGE 240300Z VRB01KT 3000 1000N R20/0500D PRFG BKN002 07/07 Q1018
LEGE 240230Z 00000KT 5000 BR SCT003 07/07 Q1018
LEGE 240200Z 00000KT 5000 BR NSC 05/05 Q1018
LEGE 240130Z 00000KT 5000 BR NSC 07/07 Q1018
TAF LEGE 232300Z 2400/2424 VRB03KT 9999 FEW015 TX21/2413Z TN05/2406Z
TEMPO 2400/2408 2000 BR BKN005
PROB40
TEMPO 2401/2407 0500 FG VV002
TEMPO 2412/2416 17007KT
PROB40
TEMPO 2421/2424 2000 BR BKN005
National Weather service
Matrícula abierta Piloto RPAs - Drones - UAVs.
Viernes
24 Noviembre de 2017
Página cargada a las 03:25 UTC
Orto: 06:53 UTC
Ocaso: 16:18 UTC

2017/11/24 03:00 LEGE 240300Z VRB01KT 3000 1000N R20/0500D PRFG BKN002 07/07 Q1018


2017/11/23 21:46 TAF AMD LEGE 232133Z 2321/2418 VRB03KT CAVOK TX23/2414Z TN04/2406Z TEMPO 2321/2324 2000 BR BKN005 PROB40 TEMPO 2400/2407 0500 BCFG BKN006
Sólo se muestran los aviones equipados con el sistema ADS-B en directo desde FlightRadar24
Aerbrava en el facebook Aerbrava en el youtube Aerbrava en el twitter Google+
Instagram tumblr flikr
logo inicio Nosotros | Mapa del sitio | Oportunidades profesionales | Privacidad | Contacte con nosotros | © 2017 AERBRAVA, SCP